Time;durP1;ratioP1;P1;durP2;ratioP2;P2;SDS_P1;SDS_P2;PMS_P1;PMS_P2;Temp;Humidity;BMP_temperature;BMP_pressure;BME280_temperature;BME280_humidity;BME280_pressure;Samples;Min_cycle;Max_cycle;Signal;HPM_P1;HPM_P2
2022/04/02 00:00:33;;;;;;;;;;;;;;;27.39;24.68;99115.16;5019459;28;822;-39
2022/04/02 00:02:58;;;;;;;;;;;;;;;27.34;24.79;99112.31;5019934;28;889;-37
2022/04/02 00:05:27;;;;;;;;;;;;;;;27.34;24.43;99104.22;5019236;28;917;-35
2022/04/02 00:07:52;;;;;;;;;;;;;;;27.36;24.37;99090.50;5023193;28;1906;-36
2022/04/02 00:10:18;;;;;;;;;;;;;;;27.45;24.46;99104.50;5020671;28;980;-38
2022/04/02 00:12:43;;;;;;;;;;;;;;;27.46;24.37;99098.88;5019117;28;841;-37
2022/04/02 00:15:09;;;;;;;;;;;;;;;27.55;24.18;99093.19;5019056;28;809;-37
2022/04/02 00:17:34;;;;;;;;;;;;;;;27.49;24.07;99087.63;5019313;28;807;-34
2022/04/02 00:20:01;;;;;;;;;;;;;;;27.51;23.98;99090.94;5030607;28;1176;-33
2022/04/02 00:22:26;;;;;;;;;;;;;;;27.43;24.42;99069.63;5038347;28;798;-37
2022/04/02 00:24:51;;;;;;;;;;;;;;;27.51;24.22;99063.94;5032480;28;881;-36
2022/04/02 00:27:16;;;;;;;;;;;;;;;27.52;24.26;99056.66;5018860;28;1902;-34
2022/04/02 00:29:42;;;;;;;;;;;;;;;27.56;24.02;99063.25;5018899;28;852;-33
2022/04/02 00:32:08;;;;;;;;;;;;;;;27.65;23.94;99066.47;5023063;28;846;-38
2022/04/02 00:34:33;;;;;;;;;;;;;;;27.53;24.41;99049.41;5018556;28;743;-36
2022/04/02 00:36:58;;;;;;;;;;;;;;;27.60;23.96;99044.72;5019002;28;901;-36
2022/04/02 00:39:23;;;;;;;;;;;;;;;27.67;24.29;99055.44;5022821;28;1237;-35
2022/04/02 00:41:49;;;;;;;;;;;;;;;27.68;24.29;99059.78;5018457;28;991;-35
2022/04/02 00:44:16;;;;;;;;;;;;;;;27.64;24.21;99056.72;5019112;28;815;-36
2022/04/02 00:46:42;;;;;;;;;;;;;;;27.71;24.15;99048.56;5018785;28;1898;-33
2022/04/02 00:49:08;;;;;;;;;;;;;;;27.75;23.88;99057.84;5018291;28;833;-34
2022/04/02 00:51:41;;;;;;;;;;;;;;;27.63;24.06;99042.38;5018705;28;901;-37
2022/04/02 00:54:06;;;;;;;;;;;;;;;27.63;24.27;99044.25;5020682;28;928;-38
2022/04/02 00:56:31;;;;;;;;;;;;;;;27.66;24.24;99035.69;5018404;28;845;-36
2022/04/02 00:58:56;;;;;;;;;;;;;;;27.61;24.04;99049.88;5021913;28;889;-36
2022/04/02 01:01:22;;;;;;;;;;;;;;;27.65;23.94;99046.72;5018162;28;798;-36
2022/04/02 01:03:48;;;;;;;;;;;;;;;27.63;24.10;99045.09;5018200;28;746;-37
2022/04/02 01:06:13;;;;;;;;;;;;;;;27.67;23.67;99033.81;5018660;28;1965;-35
2022/04/02 01:08:39;;;;;;;;;;;;;;;27.70;23.64;99030.69;5017473;28;852;-37
2022/04/02 01:11:04;;;;;;;;;;;;;;;27.69;23.75;99032.59;5036848;28;890;-38
2022/04/02 01:13:30;;;;;;;;;;;;;;;27.66;23.80;99033.00;5037344;28;817;-33
2022/04/02 01:15:56;;;;;;;;;;;;;;;27.69;23.71;99034.47;5037028;28;934;-34
2022/04/02 01:18:22;;;;;;;;;;;;;;;27.71;23.56;99052.06;5036919;28;786;-36
2022/04/02 01:20:48;;;;;;;;;;;;;;;27.69;23.77;99061.47;5036911;28;1019;-38
2022/04/02 01:23:14;;;;;;;;;;;;;;;27.67;23.65;99044.63;5020733;28;928;-35
2022/04/02 01:25:39;;;;;;;;;;;;;;;27.60;23.82;99037.44;5022362;28;837;-34
2022/04/02 01:28:05;;;;;;;;;;;;;;;27.69;23.49;99039.84;5017613;28;1968;-38
2022/04/02 01:30:30;;;;;;;;;;;;;;;27.60;23.90;99047.41;5017553;28;760;-37
2022/04/02 01:32:55;;;;;;;;;;;;;;;27.61;23.92;99051.78;5017146;28;987;-33
2022/04/02 01:35:21;;;;;;;;;;;;;;;27.67;23.99;99058.97;5022277;28;872;-37
2022/04/02 01:37:47;;;;;;;;;;;;;;;27.72;23.75;99061.00;5030234;28;1183;-37
2022/04/02 01:40:12;;;;;;;;;;;;;;;27.71;23.75;99062.88;5025407;28;873;-34
2022/04/02 01:42:38;;;;;;;;;;;;;;;27.72;23.90;99066.41;5017436;28;834;-34
2022/04/02 01:45:03;;;;;;;;;;;;;;;27.81;23.96;99056.94;5017874;28;808;-36
2022/04/02 01:47:28;;;;;;;;;;;;;;;27.68;24.13;99060.63;5017403;28;1923;-35
2022/04/02 01:49:54;;;;;;;;;;;;;;;27.73;23.74;99065.34;5019741;28;1004;-37
2022/04/02 01:52:19;;;;;;;;;;;;;;;27.77;23.90;99050.34;5017519;28;889;-35
2022/04/02 01:54:45;;;;;;;;;;;;;;;27.70;23.53;99055.84;5018256;28;916;-36
2022/04/02 01:57:10;;;;;;;;;;;;;;;27.62;23.70;99056.13;5017287;28;766;-38
2022/04/02 01:59:36;;;;;;;;;;;;;;;27.50;23.97;99056.91;5017469;28;881;-31
2022/04/02 02:02:01;;;;;;;;;;;;;;;27.55;23.79;99061.59;5022769;28;854;-38
2022/04/02 02:04:27;;;;;;;;;;;;;;;27.19;24.33;99053.31;5016788;28;794;-37
2022/04/02 02:06:52;;;;;;;;;;;;;;;27.26;24.27;99048.66;5017720;28;1898;-35
2022/04/02 02:09:17;;;;;;;;;;;;;;;27.19;24.32;99047.91;5023072;28;858;-35
2022/04/02 02:11:43;;;;;;;;;;;;;;;27.17;24.58;99051.88;5016738;28;880;-39
2022/04/02 02:14:08;;;;;;;;;;;;;;;27.20;24.67;99051.44;5019322;28;818;-35
2022/04/02 02:16:34;;;;;;;;;;;;;;;27.27;24.74;99052.19;5017144;28;797;-35
2022/04/02 02:18:59;;;;;;;;;;;;;;;27.21;24.41;99062.00;5016670;28;849;-35
2022/04/02 02:21:24;;;;;;;;;;;;;;;27.31;24.79;99066.88;5016906;28;802;-35
2022/04/02 02:23:49;;;;;;;;;;;;;;;27.30;24.54;99067.09;5019641;28;944;-35
2022/04/02 02:26:15;;;;;;;;;;;;;;;27.39;24.70;99068.47;5021792;28;2031;-33
2022/04/02 02:28:41;;;;;;;;;;;;;;;27.33;24.53;99062.06;5018349;28;814;-32
2022/04/02 02:31:06;;;;;;;;;;;;;;;27.41;24.52;99060.13;5016451;28;818;-35
2022/04/02 02:36:17;;;;;;;;;;;;;;;27.35;24.47;99076.19;5028794;28;936;-32
2022/04/02 02:38:43;;;;;;;;;;;;;;;27.23;24.34;99081.50;5017921;28;1110;-34
2022/04/02 02:41:10;;;;;;;;;;;;;;;27.26;24.35;99077.50;5016357;28;926;-37
2022/04/02 02:43:36;;;;;;;;;;;;;;;27.25;24.67;99075.88;5035031;28;861;-32
2022/04/02 02:46:01;;;;;;;;;;;;;;;27.29;24.31;99079.78;5035574;28;1902;-35
2022/04/02 02:48:26;;;;;;;;;;;;;;;27.34;24.29;99071.81;5035130;28;813;-32
2022/04/02 02:50:51;;;;;;;;;;;;;;;27.37;24.12;99078.66;5035410;28;861;-36
2022/04/02 02:53:17;;;;;;;;;;;;;;;27.36;24.13;99077.81;5023476;28;989;-35
2022/04/02 02:55:44;;;;;;;;;;;;;;;27.38;24.13;99077.59;5022259;28;964;-36
2022/04/02 02:58:09;;;;;;;;;;;;;;;27.31;24.15;99082.25;5016689;28;894;-34
2022/04/02 03:00:34;;;;;;;;;;;;;;;27.26;24.28;99083.75;5016430;28;849;-33
2022/04/02 03:03:00;;;;;;;;;;;;;;;27.35;24.23;99097.78;5016629;28;803;-34
2022/04/02 03:05:25;;;;;;;;;;;;;;;27.37;24.34;99078.66;5027806;28;949;-34
2022/04/02 03:07:51;;;;;;;;;;;;;;;27.35;24.52;99065.38;5035383;28;1902;-35
2022/04/02 03:10:17;;;;;;;;;;;;;;;27.58;24.28;99066.56;5025474;28;854;-33
2022/04/02 03:12:42;;;;;;;;;;;;;;;27.32;24.59;99062.31;5016642;28;750;-34
2022/04/02 03:15:08;;;;;;;;;;;;;;;27.24;24.49;99066.94;5016541;28;758;-35
2022/04/02 03:17:33;;;;;;;;;;;;;;;27.38;24.33;99069.50;5021427;28;766;-36
2022/04/02 03:20:00;;;;;;;;;;;;;;;27.21;24.86;99080.88;5016456;28;849;-37
2022/04/02 03:22:26;;;;;;;;;;;;;;;27.17;24.94;99078.88;5016420;28;751;-34
2022/04/02 03:24:52;;;;;;;;;;;;;;;27.18;24.88;99065.16;5019493;28;1041;-34
2022/04/02 03:27:18;;;;;;;;;;;;;;;27.15;24.83;99073.69;5016286;28;1894;-36
2022/04/02 03:29:43;;;;;;;;;;;;;;;27.18;24.66;99067.00;5017559;28;856;-33
2022/04/02 03:32:08;;;;;;;;;;;;;;;27.21;25.11;99086.28;5015832;28;868;-34
2022/04/02 03:34:34;;;;;;;;;;;;;;;27.28;24.85;99061.13;5015063;28;885;-38
2022/04/02 03:36:59;;;;;;;;;;;;;;;27.21;24.89;99053.09;5016454;28;774;-36
2022/04/02 03:39:25;;;;;;;;;;;;;;;27.30;24.91;99056.28;5028065;28;1243;-35
2022/04/02 03:41:53;;;;;;;;;;;;;;;27.50;24.30;99067.69;5034583;28;1068;-35
2022/04/02 03:44:18;;;;;;;;;;;;;;;27.48;24.72;99071.66;5034591;28;1053;-35
2022/04/02 03:49:27;;;;;;;;;;;;;;;26.71;27.35;99081.78;5034838;28;611;-35
2022/04/02 03:51:53;;;;;;;;;;;;;;;25.15;30.43;99075.31;5035356;28;905;-35
2022/04/02 03:54:19;;;;;;;;;;;;;;;23.90;33.07;99075.63;5033586;28;814;-37
2022/04/02 03:56:44;;;;;;;;;;;;;;;23.71;33.59;99075.34;5020388;28;949;-35
2022/04/02 03:59:11;;;;;;;;;;;;;;;23.82;33.33;99067.75;5019683;28;770;-30
2022/04/02 04:01:37;;;;;;;;;;;;;;;24.07;32.97;99075.25;5026171;28;1084;-36
2022/04/02 04:04:03;;;;;;;;;;;;;;;24.87;31.07;99079.06;5034384;28;1290;-34
2022/04/02 04:06:28;;;;;;;;;;;;;;;25.15;30.46;99082.53;5025817;28;1960;-33
2022/04/02 04:08:54;;;;;;;;;;;;;;;25.20;30.50;99093.50;5025824;28;777;-31
2022/04/02 04:11:21;;;;;;;;;;;;;;;25.38;30.01;99090.16;5019551;28;730;-33
2022/04/02 04:13:46;;;;;;;;;;;;;;;25.37;30.06;99085.81;5019756;28;924;-34
2022/04/02 04:16:11;;;;;;;;;;;;;;;25.41;29.86;99097.78;5018745;28;830;-34
2022/04/02 04:18:36;;;;;;;;;;;;;;;25.44;29.92;99089.28;5019380;28;818;-31
2022/04/02 04:21:02;;;;;;;;;;;;;;;25.41;29.94;99087.03;5019747;28;798;-35
2022/04/02 04:23:28;;;;;;;;;;;;;;;25.33;30.09;99092.63;5018786;28;806;-33
2022/04/02 04:25:54;;;;;;;;;;;;;;;25.25;30.35;99104.47;5021179;28;971;-35
2022/04/02 04:28:19;;;;;;;;;;;;;;;25.31;30.27;99098.22;5019334;28;1967;-32
2022/04/02 04:30:45;;;;;;;;;;;;;;;25.21;30.58;99100.53;5018481;28;865;-31
2022/04/02 04:33:11;;;;;;;;;;;;;;;25.18;30.54;99103.66;5022070;28;870;-33
2022/04/02 04:35:36;;;;;;;;;;;;;;;25.16;30.45;99114.63;5022483;28;801;-33
2022/04/02 04:38:01;;;;;;;;;;;;;;;25.14;30.56;99118.56;5018052;28;1043;-37
2022/04/02 04:40:27;;;;;;;;;;;;;;;25.13;30.47;99116.91;5025341;28;1064;-37
2022/04/02 04:42:52;;;;;;;;;;;;;;;25.17;30.63;99113.56;5018824;28;885;-32
2022/04/02 04:45:17;;;;;;;;;;;;;;;25.18;30.47;99117.94;5018868;28;734;-35
2022/04/02 04:47:46;;;;;;;;;;;;;;;25.12;30.75;99118.78;5027058;28;2308;-37
2022/04/02 04:50:11;;;;;;;;;;;;;;;25.22;30.55;99121.03;5035887;28;825;-34
2022/04/02 04:52:36;;;;;;;;;;;;;;;25.24;30.54;99115.44;5037721;28;845;-36
2022/04/02 04:55:02;;;;;;;;;;;;;;;25.17;30.72;99116.25;5029542;28;872;-34
2022/04/02 04:57:27;;;;;;;;;;;;;;;25.13;30.83;99117.72;5025634;28;879;-37
2022/04/02 04:59:52;;;;;;;;;;;;;;;25.16;31.00;99127.22;5030795;28;870;-36
2022/04/02 05:02:17;;;;;;;;;;;;;;;25.21;31.03;99138.19;5018321;28;781;-34
2022/04/02 05:04:43;;;;;;;;;;;;;;;25.15;31.17;99139.88;5018332;28;786;-32
2022/04/02 05:07:09;;;;;;;;;;;;;;;25.19;31.13;99148.38;5017454;28;1955;-31
2022/04/02 05:09:34;;;;;;;;;;;;;;;25.26;30.53;99149.16;5021249;28;836;-37
2022/04/02 05:11:59;;;;;;;;;;;;;;;25.34;30.37;99145.41;5018207;28;895;-37
2022/04/02 05:14:25;;;;;;;;;;;;;;;25.34;30.36;99147.31;5036805;28;762;-36
2022/04/02 05:16:52;;;;;;;;;;;;;;;25.33;30.22;99151.84;5036208;28;830;-32
2022/04/02 05:19:17;;;;;;;;;;;;;;;25.29;30.15;99154.13;5037479;28;770;-35
2022/04/02 05:21:42;;;;;;;;;;;;;;;25.34;30.32;99164.25;5036909;28;808;-33
2022/04/02 05:24:08;;;;;;;;;;;;;;;25.39;29.86;99159.06;5033145;28;812;-35
2022/04/02 05:26:33;;;;;;;;;;;;;;;25.38;29.80;99167.38;5030750;28;1902;-36
2022/04/02 05:28:59;;;;;;;;;;;;;;;25.38;29.92;99161.97;5037483;28;755;-37
2022/04/02 05:31:25;;;;;;;;;;;;;;;25.26;30.51;99168.00;5036768;28;860;-32
2022/04/02 05:33:50;;;;;;;;;;;;;;;25.18;30.81;99166.38;5036637;28;766;-37
2022/04/02 05:36:16;;;;;;;;;;;;;;;25.03;30.97;99181.88;5037104;28;920;-34
2022/04/02 05:38:41;;;;;;;;;;;;;;;24.72;31.61;99175.22;5029237;28;1164;-36
2022/04/02 05:41:07;;;;;;;;;;;;;;;24.70;31.50;99178.97;5021795;28;765;-36
2022/04/02 05:43:32;;;;;;;;;;;;;;;24.21;32.00;99181.75;5018602;28;869;-35
2022/04/02 05:45:58;;;;;;;;;;;;;;;24.46;31.75;99183.88;5017398;28;979;-35
2022/04/02 05:48:24;;;;;;;;;;;;;;;24.79;31.46;99189.53;5025448;28;1910;-37
2022/04/02 05:50:51;;;;;;;;;;;;;;;24.74;31.45;99190.13;5028699;28;845;-35
2022/04/02 05:53:17;;;;;;;;;;;;;;;25.86;29.25;99192.34;5014990;28;1459;-35
2022/04/02 05:55:42;;;;;;;;;;;;;;;26.20;28.21;99184.13;5021461;28;952;-38
2022/04/02 05:58:10;;;;;;;;;;;;;;;26.31;27.67;99182.63;5017773;28;815;-36
2022/04/02 06:00:35;;;;;;;;;;;;;;;26.28;27.39;99187.41;5017968;28;742;-38
2022/04/02 06:03:01;;;;;;;;;;;;;;;26.42;27.26;99184.66;5035607;28;885;-38
2022/04/02 06:05:26;;;;;;;;;;;;;;;26.33;26.93;99196.72;5017298;28;882;-36
2022/04/02 06:07:51;;;;;;;;;;;;;;;26.24;27.01;99196.94;5016762;28;1967;-36
2022/04/02 06:10:16;;;;;;;;;;;;;;;26.51;27.01;99201.38;5031823;28;1260;-36
2022/04/02 06:12:42;;;;;;;;;;;;;;;26.74;26.75;99190.03;5015736;28;1422;-36
2022/04/02 06:15:09;;;;;;;;;;;;;;;26.77;26.70;99203.13;5032001;28;1184;-34
2022/04/02 06:17:34;;;;;;;;;;;;;;;26.66;26.86;99201.09;5030305;28;1414;-37
2022/04/02 06:20:00;;;;;;;;;;;;;;;26.68;26.56;99203.56;5018729;28;812;-35
2022/04/02 06:22:25;;;;;;;;;;;;;;;26.88;26.44;99209.66;5016883;28;865;-36
2022/04/02 06:24:50;;;;;;;;;;;;;;;26.67;26.57;99210.03;5023310;28;857;-39
2022/04/02 06:27:15;;;;;;;;;;;;;;;26.77;26.41;99205.81;5017270;28;1980;-36
2022/04/02 06:29:41;;;;;;;;;;;;;;;26.73;26.33;99212.69;5022301;28;802;-37
2022/04/02 06:32:06;;;;;;;;;;;;;;;26.63;26.58;99212.31;5017131;28;869;-35
2022/04/02 06:34:32;;;;;;;;;;;;;;;26.47;26.71;99209.09;5017106;28;738;-36
2022/04/02 06:36:57;;;;;;;;;;;;;;;26.50;26.68;99213.22;5016652;28;866;-35
2022/04/02 06:39:22;;;;;;;;;;;;;;;26.62;26.66;99210.69;5021596;28;1341;-36
2022/04/02 06:41:48;;;;;;;;;;;;;;;26.79;26.18;99208.28;5019119;28;771;-38
2022/04/02 06:44:13;;;;;;;;;;;;;;;26.73;26.49;99212.69;5016353;28;807;-39
2022/04/02 06:46:38;;;;;;;;;;;;;;;26.70;26.53;99214.97;5016812;28;1902;-36
2022/04/02 06:49:04;;;;;;;;;;;;;;;26.64;26.40;99198.63;5016961;28;1132;-37
2022/04/02 06:51:29;;;;;;;;;;;;;;;26.78;26.24;99212.00;5029909;28;1322;-37
2022/04/02 06:53:54;;;;;;;;;;;;;;;26.83;26.10;99206.78;5031709;28;815;-37
2022/04/02 06:56:20;;;;;;;;;;;;;;;26.78;26.63;99204.75;5020197;28;1016;-38
2022/04/02 06:58:45;;;;;;;;;;;;;;;26.92;25.99;99207.38;5033257;28;1290;-37
2022/04/02 07:01:10;;;;;;;;;;;;;;;27.07;26.01;99196.28;5030987;28;1163;-35
2022/04/02 07:03:36;;;;;;;;;;;;;;;26.93;25.69;99200.91;5017991;28;1135;-36
2022/04/02 07:06:01;;;;;;;;;;;;;;;26.91;25.89;99205.69;5032828;28;1084;-33
2022/04/02 07:08:26;;;;;;;;;;;;;;;26.76;26.13;99209.53;5027432;28;1905;-34
2022/04/02 07:10:52;;;;;;;;;;;;;;;26.73;26.29;99212.69;5030345;28;1204;-37
2022/04/02 07:13:17;;;;;;;;;;;;;;;27.18;25.63;99212.78;5031948;28;1214;-36
2022/04/02 07:15:42;;;;;;;;;;;;;;;27.37;25.31;99216.34;5029666;28;1266;-37
2022/04/02 07:18:08;;;;;;;;;;;;;;;27.09;25.18;99207.66;5031912;28;1349;-37
2022/04/02 07:20:34;;;;;;;;;;;;;;;27.18;24.98;99212.78;5030386;28;1305;-38
2022/04/02 07:23:01;;;;;;;;;;;;;;;27.06;25.19;99218.09;5031589;28;1100;-38
2022/04/02 07:25:26;;;;;;;;;;;;;;;27.43;24.94;99209.22;5025472;28;1270;-35
2022/04/02 07:27:51;;;;;;;;;;;;;;;27.70;24.31;99215.22;5022054;28;1963;-37
2022/04/02 07:30:17;;;;;;;;;;;;;;;27.49;24.98;99211.84;5024881;28;1249;-34
2022/04/02 07:32:42;;;;;;;;;;;;;;;27.53;24.74;99219.53;5019677;28;850;-35
2022/04/02 07:35:08;;;;;;;;;;;;;;;27.73;25.21;99217.47;5027050;28;1131;-33
2022/04/02 07:37:51;;;;;;;;;;;;;;;27.54;24.92;99213.09;5031734;28;1353;-32
2022/04/02 07:40:22;;;;;;;;;;;;;;;27.72;24.90;99220.41;5034350;28;1231;-34
2022/04/02 07:42:51;;;;;;;;;;;;;;;27.77;24.82;99222.41;5036548;28;1365;-35
2022/04/02 07:45:18;;;;;;;;;;;;;;;27.92;24.58;99225.59;5050675;28;1290;-32
2022/04/02 07:47:45;;;;;;;;;;;;;;;27.81;24.82;99218.25;5036026;28;1898;-36
2022/04/02 07:50:14;;;;;;;;;;;;;;;27.94;24.58;99223.50;5051169;28;1408;-36
2022/04/02 07:52:43;;;;;;;;;;;;;;;27.88;24.55;99224.38;5032545;28;1337;-33
2022/04/02 07:55:09;;;;;;;;;;;;;;;28.04;24.23;99227.53;5035308;28;1239;-34
2022/04/02 07:57:42;;;;;;;;;;;;;;;28.05;24.12;99221.06;5036746;28;1196;-34
2022/04/02 08:00:10;;;;;;;;;;;;;;;27.94;24.32;99228.91;5038174;28;1215;-35
2022/04/02 08:02:36;;;;;;;;;;;;;;;27.97;24.41;99223.03;5038146;28;1156;-31
2022/04/02 08:05:02;;;;;;;;;;;;;;;28.11;23.71;99229.09;5036728;28;1153;-32
2022/04/02 08:07:31;;;;;;;;;;;;;;;28.09;23.66;99233.09;5037333;28;1898;-34
2022/04/02 08:09:56;;;;;;;;;;;;;;;28.16;23.71;99225.69;5033255;28;1088;-30
2022/04/02 08:12:22;;;;;;;;;;;;;;;28.20;23.49;99218.81;5035730;28;1096;-34
2022/04/02 08:14:47;;;;;;;;;;;;;;;28.11;23.83;99210.16;5036157;28;1204;-38
2022/04/02 08:17:12;;;;;;;;;;;;;;;28.30;23.69;99210.16;5037167;28;928;-39
2022/04/02 08:19:38;;;;;;;;;;;;;;;28.35;23.39;99226.53;5037374;28;833;-38
2022/04/02 08:22:03;;;;;;;;;;;;;;;28.32;23.92;99226.97;5036556;28;1060;-38
2022/04/02 08:24:28;;;;;;;;;;;;;;;28.35;23.54;99233.81;5026924;28;837;-37
2022/04/02 08:27:01;;;;;;;;;;;;;;;28.29;24.01;99230.13;5030424;28;1898;-42
2022/04/02 08:29:29;;;;;;;;;;;;;;;28.19;23.89;99227.97;5037206;28;1203;-41
2022/04/02 08:32:13;;;;;;;;;;;;;;;28.20;24.03;99234.19;5035133;28;1212;-38
2022/04/02 08:34:56;;;;;;;;;;;;;;;28.16;23.97;99231.09;5038097;28;857;-38
2022/04/02 08:37:29;;;;;;;;;;;;;;;28.10;23.92;99234.72;5023063;28;1060;-39
2022/04/02 08:40:13;;;;;;;;;;;;;;;28.39;23.61;99236.91;5021907;28;1085;-39
2022/04/02 08:42:46;;;;;;;;;;;;;;;28.42;23.97;99245.38;5035187;28;1192;-40
2022/04/02 08:45:13;;;;;;;;;;;;;;;28.38;23.63;99240.66;5025298;28;1211;-38
2022/04/02 08:47:57;;;;;;;;;;;;;;;28.42;23.56;99237.28;5024878;28;1910;-39
2022/04/02 08:50:33;;;;;;;;;;;;;;;28.38;23.90;99240.66;5031863;28;790;-39
2022/04/02 08:53:07;;;;;;;;;;;;;;;28.33;23.80;99241.34;5037574;28;848;-39
2022/04/02 08:55:35;;;;;;;;;;;;;;;28.24;23.73;99248.91;5021806;28;1084;-37
2022/04/02 08:58:08;;;;;;;;;;;;;;;28.23;24.07;99244.53;5018600;28;789;-39
2022/04/02 09:00:35;;;;;;;;;;;;;;;28.29;23.87;99246.38;5018733;28;1004;-39
2022/04/02 09:03:15;;;;;;;;;;;;;;;28.28;23.68;99252.00;5021936;28;801;-36
2022/04/02 09:05:59;;;;;;;;;;;;;;;28.33;23.94;99252.97;5018580;28;1086;-37
2022/04/02 09:08:48;;;;;;;;;;;;;;;28.23;23.56;99253.50;5030959;28;1898;-39
2022/04/02 09:11:23;;;;;;;;;;;;;;;28.14;23.87;99246.75;5010430;28;1752;-38
2022/04/02 09:13:48;;;;;;;;;;;;;;;28.10;23.81;99248.25;5018680;28;905;-37
2022/04/02 09:16:21;;;;;;;;;;;;;;;28.15;23.73;99247.56;5018150;28;830;-39
2022/04/02 09:18:58;;;;;;;;;;;;;;;28.14;23.65;99251.31;5017396;28;957;-37
2022/04/02 09:21:24;;;;;;;;;;;;;;;28.11;23.91;99253.41;5017921;28;894;-36
2022/04/02 09:23:58;;;;;;;;;;;;;;;28.06;23.66;99253.28;5021302;28;832;-35
2022/04/02 09:26:27;;;;;;;;;;;;;;;28.04;23.75;99260.81;5021159;28;1894;-37
2022/04/02 09:28:56;;;;;;;;;;;;;;;28.17;23.59;99256.28;5024659;28;810;-38
2022/04/02 09:31:21;;;;;;;;;;;;;;;28.08;23.87;99261.16;5029754;28;926;-40
2022/04/02 09:34:01;;;;;;;;;;;;;;;28.08;24.18;99253.88;5037371;28;769;-38
2022/04/02 09:36:45;;;;;;;;;;;;;;;28.15;24.14;99253.81;5036174;28;799;-37
2022/04/02 09:39:10;;;;;;;;;;;;;;;28.13;24.05;99257.78;5032744;28;1013;-37
2022/04/02 09:41:54;;;;;;;;;;;;;;;28.23;24.18;99249.94;5020684;28;974;-37
2022/04/02 09:44:27;;;;;;;;;;;;;;;28.19;24.30;99252.31;5036776;28;1177;-39
2022/04/02 09:47:11;;;;;;;;;;;;;;;28.19;24.02;99255.00;5036588;28;1906;-38
2022/04/02 09:49:55;;;;;;;;;;;;;;;28.32;23.78;99250.47;5035840;28;830;-37
2022/04/02 09:52:21;;;;;;;;;;;;;;;28.45;23.61;99260.31;5032895;28;827;-38
2022/04/02 09:54:59;;;;;;;;;;;;;;;28.57;23.40;99250.38;5024528;28;891;-39
2022/04/02 09:57:40;;;;;;;;;;;;;;;28.56;23.09;99250.63;5017512;28;809;-39
2022/04/02 10:00:06;;;;;;;;;;;;;;;28.54;23.43;99248.16;5028988;28;825;-37
2022/04/02 10:02:54;;;;;;;;;;;;;;;28.51;23.61;99250.47;5017207;28;897;-38
2022/04/02 10:05:22;;;;;;;;;;;;;;;28.49;23.26;99237.19;5029888;28;822;-39
2022/04/02 10:08:04;;;;;;;;;;;;;;;28.52;23.43;99235.88;5017125;28;1898;-38
2022/04/02 10:10:29;;;;;;;;;;;;;;;28.57;23.33;99231.44;5022336;28;845;-39
2022/04/02 10:12:55;;;;;;;;;;;;;;;28.57;23.10;99220.63;5017409;28;755;-39
2022/04/02 10:15:20;;;;;;;;;;;;;;;28.62;23.42;99228.06;5016461;28;802;-37
2022/04/02 10:17:50;;;;;;;;;;;;;;;28.61;23.21;99229.13;5018602;28;1002;-34
2022/04/02 10:20:15;;;;;;;;;;;;;;;28.66;23.08;99234.63;5033703;28;1259;-38
2022/04/02 10:22:44;;;;;;;;;;;;;;;28.55;23.48;99235.44;5035184;28;866;-39
2022/04/02 10:25:11;;;;;;;;;;;;;;;28.46;23.75;99238.44;5026106;28;896;-40
2022/04/02 10:27:36;;;;;;;;;;;;;;;28.38;23.71;99227.94;5015067;28;1918;-39
2022/04/02 10:30:02;;;;;;;;;;;;;;;28.46;23.83;99235.75;5019530;28;849;-42
2022/04/02 10:32:37;;;;;;;;;;;;;;;28.49;23.74;99231.78;5032931;28;1306;-40
2022/04/02 10:35:03;;;;;;;;;;;;;;;28.45;24.03;99233.28;5035453;28;817;-39
2022/04/02 10:37:31;;;;;;;;;;;;;;;28.47;23.74;99232.00;5035793;28;1010;-40
2022/04/02 10:39:56;;;;;;;;;;;;;;;28.38;23.96;99238.78;5025765;28;899;-39
2022/04/02 10:42:22;;;;;;;;;;;;;;;28.50;23.64;99224.47;5019651;28;767;-39
2022/04/02 10:44:51;;;;;;;;;;;;;;;28.44;23.61;99216.25;5019405;28;880;-38
2022/04/02 10:47:18;;;;;;;;;;;;;;;28.44;23.68;99226.22;5015208;28;1965;-39
2022/04/02 10:49:43;;;;;;;;;;;;;;;28.41;23.68;99230.19;5015409;28;782;-40
2022/04/02 10:52:10;;;;;;;;;;;;;;;27.36;23.23;99234.41;5024783;28;951;-36
2022/04/02 10:54:35;;;;;;;;;;;;;;;27.97;22.61;99230.31;5031787;28;835;-38
2022/04/02 10:57:01;;;;;;;;;;;;;;;28.18;22.54;99223.59;5020942;28;909;-39
2022/04/02 10:59:31;;;;;;;;;;;;;;;28.62;21.96;99208.28;5016712;28;766;-40
2022/04/02 11:01:58;;;;;;;;;;;;;;;28.62;22.28;99213.69;5016943;28;814;-38
2022/04/02 11:04:23;;;;;;;;;;;;;;;28.60;22.47;99211.22;5029419;28;1243;-37
2022/04/02 11:06:49;;;;;;;;;;;;;;;28.42;22.56;99215.63;5027983;28;2009;-39
2022/04/02 11:09:41;;;;;;;;;;;;;;;28.43;22.87;99206.47;5026188;28;790;-40
2022/04/02 11:12:06;;;;;;;;;;;;;;;28.43;22.98;99205.63;5017092;28;1468;-39
2022/04/02 11:14:38;;;;;;;;;;;;;;;28.42;23.06;99199.41;5020011;28;790;-39
2022/04/02 11:17:04;;;;;;;;;;;;;;;28.36;23.34;99201.13;5020702;28;1042;-40
2022/04/02 11:22:24;;;;;;;;;;;;;;;28.29;23.71;99191.44;5027499;28;950;-39
2022/04/02 11:24:54;;;;;;;;;;;;;;;28.33;23.78;99200.75;5031027;28;1297;-38
2022/04/02 11:27:19;;;;;;;;;;;;;;;28.36;23.40;99186.81;5029487;28;1902;-39
2022/04/02 11:29:49;;;;;;;;;;;;;;;28.12;23.68;99200.19;5039262;28;1306;-39
2022/04/02 11:32:15;;;;;;;;;;;;;;;28.05;24.01;99202.97;5038405;28;1211;-37
2022/04/02 11:34:40;;;;;;;;;;;;;;;28.16;23.79;99204.06;5033074;28;1280;-36
2022/04/02 11:37:07;;;;;;;;;;;;;;;28.15;23.45;99202.44;5037052;28;1271;-39
2022/04/02 11:39:52;;;;;;;;;;;;;;;28.31;23.38;99205.56;5036041;28;1258;-37
2022/04/02 11:42:17;;;;;;;;;;;;;;;28.39;23.30;99193.63;5037109;28;1169;-38
2022/04/02 11:44:50;;;;;;;;;;;;;;;28.29;23.11;99178.75;5036088;28;895;-37
2022/04/02 11:47:15;;;;;;;;;;;;;;;28.02;23.36;99178.28;5033611;28;1911;-38
2022/04/02 11:49:40;;;;;;;;;;;;;;;27.97;23.48;99173.56;5034115;28;782;-38
2022/04/02 11:52:10;;;;;;;;;;;;;;;27.93;23.53;99181.28;5018556;28;854;-36
2022/04/02 11:54:39;;;;;;;;;;;;;;;28.06;23.50;99176.78;5024029;28;1061;-37
2022/04/02 11:57:14;;;;;;;;;;;;;;;28.18;23.10;99163.28;5034480;28;1286;-39
2022/04/02 11:59:50;;;;;;;;;;;;;;;28.21;22.96;99152.03;5033003;28;785;-40
2022/04/02 12:02:35;;;;;;;;;;;;;;;28.05;23.15;99157.03;5018313;28;817;-38
2022/04/02 12:05:00;;;;;;;;;;;;;;;27.94;23.53;99147.81;5032545;28;758;-38
2022/04/02 12:07:25;;;;;;;;;;;;;;;27.97;23.43;99151.94;5037712;28;1890;-38
2022/04/02 12:09:51;;;;;;;;;;;;;;;27.94;23.79;99153.22;5029960;28;882;-40
2022/04/02 12:12:21;;;;;;;;;;;;;;;27.87;23.76;99153.31;5019657;28;815;-36
2022/04/02 12:14:46;;;;;;;;;;;;;;;27.91;23.98;99150.16;5018597;28;912;-38
2022/04/02 12:17:12;;;;;;;;;;;;;;;27.94;23.55;99138.88;5017856;28;997;-39
2022/04/02 12:19:41;;;;;;;;;;;;;;;28.05;23.47;99137.28;5037307;28;770;-40
2022/04/02 12:22:26;;;;;;;;;;;;;;;28.10;23.51;99126.59;5035908;28;1278;-39
2022/04/02 12:24:53;;;;;;;;;;;;;;;28.11;23.63;99125.56;5028212;28;1960;-39
2022/04/02 12:27:22;;;;;;;;;;;;;;;28.10;23.28;99121.19;5018279;28;1890;-39
2022/04/02 12:29:48;;;;;;;;;;;;;;;28.13;23.52;99125.34;5018254;28;841;-38
2022/04/02 12:32:26;;;;;;;;;;;;;;;28.22;23.21;99115.84;5017607;28;811;-39
2022/04/02 12:34:54;;;;;;;;;;;;;;;28.22;23.13;99105.03;5017875;28;802;-39
2022/04/02 12:37:19;;;;;;;;;;;;;;;28.03;23.45;99115.06;4978172;28;1208476;-38
2022/04/02 12:39:45;;;;;;;;;;;;;;;28.07;22.79;99111.69;5026920;28;904;-39
2022/04/02 12:42:10;;;;;;;;;;;;;;;28.08;23.18;99104.38;5033668;28;857;-39
2022/04/02 12:44:35;;;;;;;;;;;;;;;28.20;23.19;99110.66;5018687;28;834;-38
2022/04/02 12:47:07;;;;;;;;;;;;;;;28.32;22.96;99120.69;5018134;28;1930;-39
2022/04/02 12:49:33;;;;;;;;;;;;;;;28.29;23.07;99113.88;5018375;28;818;-36
2022/04/02 12:52:17;;;;;;;;;;;;;;;28.36;22.82;99101.09;5019426;28;881;-38
2022/04/02 12:54:50;;;;;;;;;;;;;;;28.33;22.87;99093.44;5029138;28;998;-37
2022/04/02 12:57:15;;;;;;;;;;;;;;;28.28;22.91;99092.47;5033049;28;1041;-36
2022/04/02 12:59:50;;;;;;;;;;;;;;;28.17;23.05;99096.78;5035550;28;1112;-39
2022/04/02 13:02:20;;;;;;;;;;;;;;;28.22;22.79;99108.56;5037326;28;803;-38
2022/04/02 13:04:55;;;;;;;;;;;;;;;28.40;22.23;99096.03;5036261;28;985;-39
2022/04/02 13:07:23;;;;;;;;;;;;;;;28.42;22.47;99104.75;5031235;28;1959;-39
2022/04/02 13:09:52;;;;;;;;;;;;;;;28.48;22.30;99095.69;5035331;28;1215;-40
2022/04/02 13:12:21;;;;;;;;;;;;;;;28.54;21.92;99085.00;5032396;28;1528;-36